sensor_id;sensor_type;location;lat;lon;timestamp;P1;durP1;ratioP1;P2;durP2;ratioP2
14722;SDS011;7452;55.594;12.986;2023-05-24T00:01:59;18.00;;;5.67;;
14722;SDS011;7452;55.594;12.986;2023-05-24T00:04:27;17.27;;;5.53;;
14722;SDS011;7452;55.594;12.986;2023-05-24T00:06:54;17.30;;;5.93;;
14722;SDS011;7452;55.594;12.986;2023-05-24T00:09:22;23.13;;;6.57;;
14722;SDS011;7452;55.594;12.986;2023-05-24T00:11:49;17.90;;;6.00;;
14722;SDS011;7452;55.594;12.986;2023-05-24T00:14:17;15.57;;;5.67;;
14722;SDS011;7452;55.594;12.986;2023-05-24T00:16:44;19.70;;;5.83;;
14722;SDS011;7452;55.594;12.986;2023-05-24T00:19:12;21.73;;;6.53;;
14722;SDS011;7452;55.594;12.986;2023-05-24T00:21:42;20.13;;;6.10;;
14722;SDS011;7452;55.594;12.986;2023-05-24T00:24:09;15.10;;;5.63;;
14722;SDS011;7452;55.594;12.986;2023-05-24T00:26:37;21.00;;;6.50;;
14722;SDS011;7452;55.594;12.986;2023-05-24T00:29:07;15.40;;;5.67;;
14722;SDS011;7452;55.594;12.986;2023-05-24T00:31:34;14.93;;;5.90;;
14722;SDS011;7452;55.594;12.986;2023-05-24T00:34:04;18.20;;;5.83;;
14722;SDS011;7452;55.594;12.986;2023-05-24T00:36:33;15.13;;;6.07;;
14722;SDS011;7452;55.594;12.986;2023-05-24T00:39:02;16.83;;;5.90;;
14722;SDS011;7452;55.594;12.986;2023-05-24T00:41:29;13.87;;;5.70;;
14722;SDS011;7452;55.594;12.986;2023-05-24T00:43:56;22.00;;;6.50;;
14722;SDS011;7452;55.594;12.986;2023-05-24T00:46:24;17.10;;;5.77;;
14722;SDS011;7452;55.594;12.986;2023-05-24T00:48:54;20.17;;;6.70;;
14722;SDS011;7452;55.594;12.986;2023-05-24T00:51:22;17.07;;;6.27;;
14722;SDS011;7452;55.594;12.986;2023-05-24T00:53:53;18.43;;;6.63;;
14722;SDS011;7452;55.594;12.986;2023-05-24T00:56:21;18.43;;;6.27;;
14722;SDS011;7452;55.594;12.986;2023-05-24T00:58:48;15.43;;;5.93;;
14722;SDS011;7452;55.594;12.986;2023-05-24T01:01:18;16.53;;;5.97;;
14722;SDS011;7452;55.594;12.986;2023-05-24T01:03:52;18.90;;;6.67;;
14722;SDS011;7452;55.594;12.986;2023-05-24T01:06:21;24.37;;;7.13;;
14722;SDS011;7452;55.594;12.986;2023-05-24T01:09:11;16.10;;;6.07;;
14722;SDS011;7452;55.594;12.986;2023-05-24T01:11:53;16.37;;;6.07;;
14722;SDS011;7452;55.594;12.986;2023-05-24T01:14:34;19.93;;;6.00;;
14722;SDS011;7452;55.594;12.986;2023-05-24T01:17:08;15.80;;;5.90;;
14722;SDS011;7452;55.594;12.986;2023-05-24T01:19:47;16.83;;;5.77;;
14722;SDS011;7452;55.594;12.986;2023-05-24T01:22:23;17.93;;;6.10;;
14722;SDS011;7452;55.594;12.986;2023-05-24T01:25:08;16.00;;;5.93;;
14722;SDS011;7452;55.594;12.986;2023-05-24T01:27:43;16.50;;;5.83;;
14722;SDS011;7452;55.594;12.986;2023-05-24T01:30:12;16.60;;;6.00;;
14722;SDS011;7452;55.594;12.986;2023-05-24T01:32:40;18.50;;;6.30;;
14722;SDS011;7452;55.594;12.986;2023-05-24T01:35:07;16.27;;;6.37;;
14722;SDS011;7452;55.594;12.986;2023-05-24T01:37:35;18.53;;;5.90;;
14722;SDS011;7452;55.594;12.986;2023-05-24T01:40:02;19.70;;;5.63;;
14722;SDS011;7452;55.594;12.986;2023-05-24T01:42:31;16.10;;;5.53;;
14722;SDS011;7452;55.594;12.986;2023-05-24T01:45:05;18.33;;;6.27;;
14722;SDS011;7452;55.594;12.986;2023-05-24T01:47:44;15.57;;;5.17;;
14722;SDS011;7452;55.594;12.986;2023-05-24T01:50:19;12.90;;;5.90;;
14722;SDS011;7452;55.594;12.986;2023-05-24T01:52:51;15.37;;;5.60;;
14722;SDS011;7452;55.594;12.986;2023-05-24T01:55:20;15.40;;;5.87;;
14722;SDS011;7452;55.594;12.986;2023-05-24T01:57:48;16.53;;;6.50;;
14722;SDS011;7452;55.594;12.986;2023-05-24T02:00:18;17.30;;;5.87;;
14722;SDS011;7452;55.594;12.986;2023-05-24T02:02:47;19.07;;;6.63;;
14722;SDS011;7452;55.594;12.986;2023-05-24T02:05:14;12.50;;;5.47;;
14722;SDS011;7452;55.594;12.986;2023-05-24T02:07:41;16.90;;;5.60;;
14722;SDS011;7452;55.594;12.986;2023-05-24T02:10:08;14.50;;;6.37;;
14722;SDS011;7452;55.594;12.986;2023-05-24T02:12:36;17.13;;;6.50;;
14722;SDS011;7452;55.594;12.986;2023-05-24T02:15:03;17.70;;;6.57;;
14722;SDS011;7452;55.594;12.986;2023-05-24T02:17:32;17.17;;;6.53;;
14722;SDS011;7452;55.594;12.986;2023-05-24T02:19:59;14.47;;;6.37;;
14722;SDS011;7452;55.594;12.986;2023-05-24T02:22:27;15.73;;;5.63;;
14722;SDS011;7452;55.594;12.986;2023-05-24T02:24:55;16.97;;;6.03;;
14722;SDS011;7452;55.594;12.986;2023-05-24T02:27:22;15.77;;;6.23;;
14722;SDS011;7452;55.594;12.986;2023-05-24T02:29:49;15.67;;;6.17;;
14722;SDS011;7452;55.594;12.986;2023-05-24T02:32:16;16.07;;;6.27;;
14722;SDS011;7452;55.594;12.986;2023-05-24T02:34:48;15.37;;;6.20;;
14722;SDS011;7452;55.594;12.986;2023-05-24T02:37:18;14.63;;;6.03;;
14722;SDS011;7452;55.594;12.986;2023-05-24T02:39:45;18.40;;;6.57;;
14722;SDS011;7452;55.594;12.986;2023-05-24T02:42:12;16.93;;;6.60;;
14722;SDS011;7452;55.594;12.986;2023-05-24T02:44:42;20.13;;;7.00;;
14722;SDS011;7452;55.594;12.986;2023-05-24T02:47:13;16.80;;;7.33;;
14722;SDS011;7452;55.594;12.986;2023-05-24T02:49:40;14.83;;;6.70;;
14722;SDS011;7452;55.594;12.986;2023-05-24T02:52:09;13.80;;;6.73;;
14722;SDS011;7452;55.594;12.986;2023-05-24T02:54:37;18.20;;;7.07;;
14722;SDS011;7452;55.594;12.986;2023-05-24T02:57:04;13.60;;;6.57;;
14722;SDS011;7452;55.594;12.986;2023-05-24T02:59:31;14.50;;;6.77;;
14722;SDS011;7452;55.594;12.986;2023-05-24T03:01:59;17.30;;;6.53;;
14722;SDS011;7452;55.594;12.986;2023-05-24T03:04:26;18.60;;;7.30;;
14722;SDS011;7452;55.594;12.986;2023-05-24T03:06:59;16.50;;;7.23;;
14722;SDS011;7452;55.594;12.986;2023-05-24T03:09:27;15.10;;;6.77;;
14722;SDS011;7452;55.594;12.986;2023-05-24T03:11:54;16.20;;;7.37;;
14722;SDS011;7452;55.594;12.986;2023-05-24T03:14:21;17.77;;;7.57;;
14722;SDS011;7452;55.594;12.986;2023-05-24T03:16:49;19.00;;;7.60;;
14722;SDS011;7452;55.594;12.986;2023-05-24T03:19:18;17.23;;;7.97;;
14722;SDS011;7452;55.594;12.986;2023-05-24T03:21:45;17.07;;;8.50;;
14722;SDS011;7452;55.594;12.986;2023-05-24T03:24:13;17.23;;;8.40;;
14722;SDS011;7452;55.594;12.986;2023-05-24T03:26:41;16.23;;;8.50;;
14722;SDS011;7452;55.594;12.986;2023-05-24T03:29:08;18.63;;;8.80;;
14722;SDS011;7452;55.594;12.986;2023-05-24T03:31:35;20.47;;;8.87;;
14722;SDS011;7452;55.594;12.986;2023-05-24T03:34:02;15.30;;;8.23;;
14722;SDS011;7452;55.594;12.986;2023-05-24T03:36:29;15.80;;;7.30;;
14722;SDS011;7452;55.594;12.986;2023-05-24T03:38:56;20.40;;;8.73;;
14722;SDS011;7452;55.594;12.986;2023-05-24T03:41:24;14.57;;;7.60;;
14722;SDS011;7452;55.594;12.986;2023-05-24T03:43:53;13.07;;;7.80;;
14722;SDS011;7452;55.594;12.986;2023-05-24T03:46:22;14.87;;;7.90;;
14722;SDS011;7452;55.594;12.986;2023-05-24T03:48:49;19.30;;;7.93;;
14722;SDS011;7452;55.594;12.986;2023-05-24T03:51:19;15.37;;;7.90;;
14722;SDS011;7452;55.594;12.986;2023-05-24T03:53:47;16.00;;;7.83;;
14722;SDS011;7452;55.594;12.986;2023-05-24T03:56:15;13.50;;;7.43;;
14722;SDS011;7452;55.594;12.986;2023-05-24T03:58:44;17.57;;;8.60;;
14722;SDS011;7452;55.594;12.986;2023-05-24T04:01:28;14.80;;;8.20;;
14722;SDS011;7452;55.594;12.986;2023-05-24T04:03:56;17.70;;;8.50;;
14722;SDS011;7452;55.594;12.986;2023-05-24T04:06:25;12.33;;;7.53;;
14722;SDS011;7452;55.594;12.986;2023-05-24T04:08:53;18.70;;;8.00;;
14722;SDS011;7452;55.594;12.986;2023-05-24T04:11:21;19.30;;;8.57;;
14722;SDS011;7452;55.594;12.986;2023-05-24T04:13:52;14.13;;;7.53;;
14722;SDS011;7452;55.594;12.986;2023-05-24T04:16:21;18.07;;;8.77;;
14722;SDS011;7452;55.594;12.986;2023-05-24T04:18:51;13.53;;;8.20;;
14722;SDS011;7452;55.594;12.986;2023-05-24T04:21:40;15.97;;;8.37;;
14722;SDS011;7452;55.594;12.986;2023-05-24T04:24:07;12.63;;;7.40;;
14722;SDS011;7452;55.594;12.986;2023-05-24T04:26:47;12.23;;;7.30;;
14722;SDS011;7452;55.594;12.986;2023-05-24T04:29:15;14.33;;;8.50;;
14722;SDS011;7452;55.594;12.986;2023-05-24T04:31:44;11.70;;;7.13;;
14722;SDS011;7452;55.594;12.986;2023-05-24T04:34:14;15.67;;;8.37;;
14722;SDS011;7452;55.594;12.986;2023-05-24T04:36:41;16.77;;;8.40;;
14722;SDS011;7452;55.594;12.986;2023-05-24T04:39:09;14.57;;;7.40;;
14722;SDS011;7452;55.594;12.986;2023-05-24T04:41:36;14.47;;;7.40;;
14722;SDS011;7452;55.594;12.986;2023-05-24T04:44:03;11.90;;;7.80;;
14722;SDS011;7452;55.594;12.986;2023-05-24T04:46:31;10.47;;;7.33;;
14722;SDS011;7452;55.594;12.986;2023-05-24T04:49:00;12.63;;;7.57;;
14722;SDS011;7452;55.594;12.986;2023-05-24T04:51:29;10.27;;;6.90;;
14722;SDS011;7452;55.594;12.986;2023-05-24T04:53:56;13.37;;;7.07;;
14722;SDS011;7452;55.594;12.986;2023-05-24T04:56:24;11.10;;;6.87;;
14722;SDS011;7452;55.594;12.986;2023-05-24T04:58:51;12.50;;;7.30;;
14722;SDS011;7452;55.594;12.986;2023-05-24T05:01:19;11.43;;;6.67;;
14722;SDS011;7452;55.594;12.986;2023-05-24T05:06:11;12.67;;;6.67;;
14722;SDS011;7452;55.594;12.986;2023-05-24T05:08:40;8.33;;;6.43;;
14722;SDS011;7452;55.594;12.986;2023-05-24T05:11:10;9.00;;;6.47;;
14722;SDS011;7452;55.594;12.986;2023-05-24T05:13:52;11.20;;;6.73;;
14722;SDS011;7452;55.594;12.986;2023-05-24T05:16:19;11.13;;;6.57;;
14722;SDS011;7452;55.594;12.986;2023-05-24T05:18:46;9.83;;;6.63;;
14722;SDS011;7452;55.594;12.986;2023-05-24T05:21:13;11.23;;;6.20;;
14722;SDS011;7452;55.594;12.986;2023-05-24T05:23:44;7.53;;;5.87;;
14722;SDS011;7452;55.594;12.986;2023-05-24T05:26:11;11.67;;;6.60;;
14722;SDS011;7452;55.594;12.986;2023-05-24T05:28:38;10.23;;;6.33;;
14722;SDS011;7452;55.594;12.986;2023-05-24T05:31:05;8.30;;;5.83;;
14722;SDS011;7452;55.594;12.986;2023-05-24T05:33:33;9.17;;;4.97;;
14722;SDS011;7452;55.594;12.986;2023-05-24T05:36:00;10.40;;;6.17;;
14722;SDS011;7452;55.594;12.986;2023-05-24T05:38:27;9.17;;;5.50;;
14722;SDS011;7452;55.594;12.986;2023-05-24T05:40:56;8.17;;;5.10;;
14722;SDS011;7452;55.594;12.986;2023-05-24T05:43:23;11.20;;;5.80;;
14722;SDS011;7452;55.594;12.986;2023-05-24T05:45:50;7.83;;;5.60;;
14722;SDS011;7452;55.594;12.986;2023-05-24T05:48:17;14.03;;;5.67;;
14722;SDS011;7452;55.594;12.986;2023-05-24T05:50:44;6.53;;;5.33;;
14722;SDS011;7452;55.594;12.986;2023-05-24T06:01:02;8.47;;;6.90;;
14722;SDS011;7452;55.594;12.986;2023-05-24T06:03:30;9.63;;;5.83;;
14722;SDS011;7452;55.594;12.986;2023-05-24T06:05:57;7.37;;;5.87;;
14722;SDS011;7452;55.594;12.986;2023-05-24T06:08:27;9.60;;;5.97;;
14722;SDS011;7452;55.594;12.986;2023-05-24T06:26:32;8.80;;;6.20;;
14722;SDS011;7452;55.594;12.986;2023-05-24T06:29:01;7.87;;;6.13;;
14722;SDS011;7452;55.594;12.986;2023-05-24T06:31:38;6.27;;;5.20;;
14722;SDS011;7452;55.594;12.986;2023-05-24T06:34:06;6.90;;;5.33;;
14722;SDS011;7452;55.594;12.986;2023-05-24T06:36:33;6.87;;;5.20;;
14722;SDS011;7452;55.594;12.986;2023-05-24T06:39:13;7.17;;;5.50;;
14722;SDS011;7452;55.594;12.986;2023-05-24T06:41:49;9.17;;;6.33;;
14722;SDS011;7452;55.594;12.986;2023-05-24T06:44:21;6.47;;;5.73;;
14722;SDS011;7452;55.594;12.986;2023-05-24T06:46:58;6.30;;;5.67;;
14722;SDS011;7452;55.594;12.986;2023-05-24T07:10:39;8.80;;;7.90;;
14722;SDS011;7452;55.594;12.986;2023-05-24T07:13:09;8.87;;;8.07;;
14722;SDS011;7452;55.594;12.986;2023-05-24T07:15:39;8.43;;;7.50;;
14722;SDS011;7452;55.594;12.986;2023-05-24T07:18:08;8.30;;;7.50;;
14722;SDS011;7452;55.594;12.986;2023-05-24T07:20:35;8.13;;;7.23;;
14722;SDS011;7452;55.594;12.986;2023-05-24T07:23:03;9.27;;;8.47;;
14722;SDS011;7452;55.594;12.986;2023-05-24T07:25:31;9.03;;;8.23;;
14722;SDS011;7452;55.594;12.986;2023-05-24T07:27:59;10.00;;;9.00;;
14722;SDS011;7452;55.594;12.986;2023-05-24T07:30:27;9.97;;;9.07;;
14722;SDS011;7452;55.594;12.986;2023-05-24T07:32:54;9.43;;;8.57;;
14722;SDS011;7452;55.594;12.986;2023-05-24T07:35:24;9.40;;;8.50;;
14722;SDS011;7452;55.594;12.986;2023-05-24T07:37:52;9.20;;;8.30;;
14722;SDS011;7452;55.594;12.986;2023-05-24T07:40:20;9.00;;;8.10;;
14722;SDS011;7452;55.594;12.986;2023-05-24T07:42:50;9.40;;;7.60;;
14722;SDS011;7452;55.594;12.986;2023-05-24T07:45:20;9.43;;;8.53;;
14722;SDS011;7452;55.594;12.986;2023-05-24T07:47:49;8.37;;;7.57;;
14722;SDS011;7452;55.594;12.986;2023-05-24T07:50:17;8.30;;;7.50;;
14722;SDS011;7452;55.594;12.986;2023-05-24T07:52:44;8.60;;;7.80;;
14722;SDS011;7452;55.594;12.986;2023-05-24T07:55:14;9.83;;;8.03;;
14722;SDS011;7452;55.594;12.986;2023-05-24T07:57:41;8.70;;;7.90;;
14722;SDS011;7452;55.594;12.986;2023-05-24T08:00:13;8.67;;;7.67;;
14722;SDS011;7452;55.594;12.986;2023-05-24T08:02:45;9.13;;;8.30;;
14722;SDS011;7452;55.594;12.986;2023-05-24T08:05:12;8.37;;;7.67;;
14722;SDS011;7452;55.594;12.986;2023-05-24T08:07:40;8.90;;;7.57;;
14722;SDS011;7452;55.594;12.986;2023-05-24T08:10:08;9.03;;;7.67;;
14722;SDS011;7452;55.594;12.986;2023-05-24T08:12:38;7.83;;;7.13;;
14722;SDS011;7452;55.594;12.986;2023-05-24T08:15:08;8.43;;;7.20;;
14722;SDS011;7452;55.594;12.986;2023-05-24T08:17:38;8.57;;;7.07;;
14722;SDS011;7452;55.594;12.986;2023-05-24T08:20:05;7.83;;;6.90;;
14722;SDS011;7452;55.594;12.986;2023-05-24T08:22:34;8.87;;;7.73;;
14722;SDS011;7452;55.594;12.986;2023-05-24T08:25:01;8.57;;;7.60;;
14722;SDS011;7452;55.594;12.986;2023-05-24T08:27:29;7.97;;;7.17;;
14722;SDS011;7452;55.594;12.986;2023-05-24T08:29:57;12.73;;;7.17;;
14722;SDS011;7452;55.594;12.986;2023-05-24T08:32:24;7.60;;;6.83;;
14722;SDS011;7452;55.594;12.986;2023-05-24T08:34:55;8.23;;;7.40;;
14722;SDS011;7452;55.594;12.986;2023-05-24T08:37:23;8.47;;;7.63;;
14722;SDS011;7452;55.594;12.986;2023-05-24T08:39:50;7.77;;;6.97;;
14722;SDS011;7452;55.594;12.986;2023-05-24T08:42:17;7.43;;;6.73;;
14722;SDS011;7452;55.594;12.986;2023-05-24T08:44:52;8.50;;;7.60;;
14722;SDS011;7452;55.594;12.986;2023-05-24T08:47:25;8.30;;;6.90;;
14722;SDS011;7452;55.594;12.986;2023-05-24T08:50:02;7.90;;;7.07;;
14722;SDS011;7452;55.594;12.986;2023-05-24T08:52:34;7.67;;;6.80;;
14722;SDS011;7452;55.594;12.986;2023-05-24T08:55:04;7.67;;;6.70;;
14722;SDS011;7452;55.594;12.986;2023-05-24T08:57:38;8.30;;;7.03;;
14722;SDS011;7452;55.594;12.986;2023-05-24T09:00:20;7.43;;;6.43;;
14722;SDS011;7452;55.594;12.986;2023-05-24T09:02:52;8.60;;;6.93;;
14722;SDS011;7452;55.594;12.986;2023-05-24T09:05:43;6.93;;;6.23;;
14722;SDS011;7452;55.594;12.986;2023-05-24T09:08:27;7.33;;;6.60;;
14722;SDS011;7452;55.594;12.986;2023-05-24T09:11:10;6.87;;;6.27;;
14722;SDS011;7452;55.594;12.986;2023-05-24T09:13:40;7.43;;;6.73;;
14722;SDS011;7452;55.594;12.986;2023-05-24T09:16:14;6.73;;;6.13;;
14722;SDS011;7452;55.594;12.986;2023-05-24T09:18:42;7.37;;;6.77;;
14722;SDS011;7452;55.594;12.986;2023-05-24T09:21:24;7.13;;;6.33;;
14722;SDS011;7452;55.594;12.986;2023-05-24T09:23:58;7.27;;;6.67;;
14722;SDS011;7452;55.594;12.986;2023-05-24T09:26:29;6.53;;;5.93;;
14722;SDS011;7452;55.594;12.986;2023-05-24T09:29:01;7.73;;;6.40;;
14722;SDS011;7452;55.594;12.986;2023-05-24T09:31:47;6.80;;;6.20;;
14722;SDS011;7452;55.594;12.986;2023-05-24T09:34:29;7.80;;;6.53;;
14722;SDS011;7452;55.594;12.986;2023-05-24T09:37:13;7.43;;;6.43;;
14722;SDS011;7452;55.594;12.986;2023-05-24T09:40:06;8.50;;;7.27;;
14722;SDS011;7452;55.594;12.986;2023-05-24T09:42:47;7.97;;;7.17;;
14722;SDS011;7452;55.594;12.986;2023-05-24T09:45:30;8.40;;;7.60;;
14722;SDS011;7452;55.594;12.986;2023-05-24T09:47:58;7.97;;;6.33;;
14722;SDS011;7452;55.594;12.986;2023-05-24T09:50:39;9.83;;;7.07;;
14722;SDS011;7452;55.594;12.986;2023-05-24T09:53:17;8.00;;;6.63;;
14722;SDS011;7452;55.594;12.986;2023-05-24T09:55:47;7.50;;;6.63;;
14722;SDS011;7452;55.594;12.986;2023-05-24T09:58:18;6.80;;;6.20;;
14722;SDS011;7452;55.594;12.986;2023-05-24T10:01:01;5.80;;;5.30;;
14722;SDS011;7452;55.594;12.986;2023-05-24T10:03:39;6.50;;;5.90;;
14722;SDS011;7452;55.594;12.986;2023-05-24T13:22:12;4.30;;;3.90;;
14722;SDS011;7452;55.594;12.986;2023-05-24T13:24:39;4.13;;;3.83;;
14722;SDS011;7452;55.594;12.986;2023-05-24T13:27:07;4.07;;;3.67;;
14722;SDS011;7452;55.594;12.986;2023-05-24T13:29:36;4.15;;;3.70;;
14722;SDS011;7452;55.594;12.986;2023-05-24T13:32:03;4.78;;;3.72;;
14722;SDS011;7452;55.594;12.986;2023-05-24T13:34:31;3.90;;;3.47;;
14722;SDS011;7452;55.594;12.986;2023-05-24T13:36:58;4.15;;;3.83;;
14722;SDS011;7452;55.594;12.986;2023-05-24T13:39:27;4.03;;;3.72;;
14722;SDS011;7452;55.594;12.986;2023-05-24T13:42:00;3.72;;;3.42;;
14722;SDS011;7452;55.594;12.986;2023-05-24T13:44:28;6.50;;;4.15;;
14722;SDS011;7452;55.594;12.986;2023-05-24T13:46:56;4.97;;;3.90;;
14722;SDS011;7452;55.594;12.986;2023-05-24T13:49:23;6.85;;;4.55;;
14722;SDS011;7452;55.594;12.986;2023-05-24T13:51:51;4.18;;;3.78;;
14722;SDS011;7452;55.594;12.986;2023-05-24T13:54:18;5.10;;;4.25;;
14722;SDS011;7452;55.594;12.986;2023-05-24T13:56:47;4.43;;;4.03;;
14722;SDS011;7452;55.594;12.986;2023-05-24T13:59:15;6.53;;;4.53;;
14722;SDS011;7452;55.594;12.986;2023-05-24T14:01:42;4.25;;;3.92;;
14722;SDS011;7452;55.594;12.986;2023-05-24T14:04:10;5.10;;;4.20;;
14722;SDS011;7452;55.594;12.986;2023-05-24T14:06:37;4.82;;;4.43;;
14722;SDS011;7452;55.594;12.986;2023-05-24T14:09:07;4.60;;;4.20;;
14722;SDS011;7452;55.594;12.986;2023-05-24T14:11:35;4.70;;;4.30;;
14722;SDS011;7452;55.594;12.986;2023-05-24T14:14:04;4.90;;;4.40;;
14722;SDS011;7452;55.594;12.986;2023-05-24T14:16:34;4.90;;;4.13;;
14722;SDS011;7452;55.594;12.986;2023-05-24T14:19:01;5.78;;;4.80;;
14722;SDS011;7452;55.594;12.986;2023-05-24T14:21:30;4.68;;;4.28;;
14722;SDS011;7452;55.594;12.986;2023-05-24T14:24:01;7.30;;;4.13;;
14722;SDS011;7452;55.594;12.986;2023-05-24T14:26:28;6.38;;;4.40;;
14722;SDS011;7452;55.594;12.986;2023-05-24T14:29:02;4.72;;;4.25;;
14722;SDS011;7452;55.594;12.986;2023-05-24T14:31:31;4.82;;;4.35;;
14722;SDS011;7452;55.594;12.986;2023-05-24T14:34:06;4.65;;;4.25;;
14722;SDS011;7452;55.594;12.986;2023-05-24T14:36:35;5.97;;;4.45;;
14722;SDS011;7452;55.594;12.986;2023-05-24T14:39:04;5.05;;;4.30;;
14722;SDS011;7452;55.594;12.986;2023-05-24T14:41:31;5.28;;;4.88;;
14722;SDS011;7452;55.594;12.986;2023-05-24T14:44:02;5.25;;;4.80;;
14722;SDS011;7452;55.594;12.986;2023-05-24T14:46:30;6.40;;;4.90;;
14722;SDS011;7452;55.594;12.986;2023-05-24T14:48:57;5.80;;;5.20;;
14722;SDS011;7452;55.594;12.986;2023-05-24T14:51:26;6.97;;;5.68;;
14722;SDS011;7452;55.594;12.986;2023-05-24T14:53:53;7.35;;;6.18;;
14722;SDS011;7452;55.594;12.986;2023-05-24T14:56:21;6.22;;;5.63;;
14722;SDS011;7452;55.594;12.986;2023-05-24T14:58:48;8.52;;;7.20;;
14722;SDS011;7452;55.594;12.986;2023-05-24T15:01:17;7.55;;;6.95;;
14722;SDS011;7452;55.594;12.986;2023-05-24T15:03:44;7.75;;;7.10;;
14722;SDS011;7452;55.594;12.986;2023-05-24T15:06:11;10.30;;;6.47;;
14722;SDS011;7452;55.594;12.986;2023-05-24T15:08:52;7.10;;;6.47;;
14722;SDS011;7452;55.594;12.986;2023-05-24T15:11:21;7.15;;;6.53;;
14722;SDS011;7452;55.594;12.986;2023-05-24T15:13:48;9.75;;;7.28;;
14722;SDS011;7452;55.594;12.986;2023-05-24T15:16:25;7.88;;;7.18;;
14722;SDS011;7452;55.594;12.986;2023-05-24T15:18:52;8.13;;;7.43;;
14722;SDS011;7452;55.594;12.986;2023-05-24T15:21:20;8.23;;;7.47;;
14722;SDS011;7452;55.594;12.986;2023-05-24T15:23:47;7.72;;;7.00;;
14722;SDS011;7452;55.594;12.986;2023-05-24T15:26:16;9.80;;;8.82;;
14722;SDS011;7452;55.594;12.986;2023-05-24T15:28:43;7.40;;;6.70;;
14722;SDS011;7452;55.594;12.986;2023-05-24T15:31:11;7.57;;;6.30;;
14722;SDS011;7452;55.594;12.986;2023-05-24T15:33:45;6.38;;;5.80;;
14722;SDS011;7452;55.594;12.986;2023-05-24T15:36:17;6.15;;;5.43;;
14722;SDS011;7452;55.594;12.986;2023-05-24T15:38:44;6.72;;;6.03;;
14722;SDS011;7452;55.594;12.986;2023-05-24T15:41:11;5.90;;;5.50;;
14722;SDS011;7452;55.594;12.986;2023-05-24T15:43:41;6.05;;;5.35;;
14722;SDS011;7452;55.594;12.986;2023-05-24T15:46:09;7.22;;;4.95;;
14722;SDS011;7452;55.594;12.986;2023-05-24T15:48:37;5.97;;;5.32;;
14722;SDS011;7452;55.594;12.986;2023-05-24T15:51:07;4.70;;;4.18;;
14722;SDS011;7452;55.594;12.986;2023-05-24T15:53:34;5.82;;;4.65;;
14722;SDS011;7452;55.594;12.986;2023-05-24T15:56:04;5.43;;;4.93;;
14722;SDS011;7452;55.594;12.986;2023-05-24T15:58:32;5.35;;;4.70;;
14722;SDS011;7452;55.594;12.986;2023-05-24T16:00:59;6.00;;;5.45;;
14722;SDS011;7452;55.594;12.986;2023-05-24T16:03:27;5.40;;;4.90;;
14722;SDS011;7452;55.594;12.986;2023-05-24T16:05:54;5.60;;;5.10;;
14722;SDS011;7452;55.594;12.986;2023-05-24T16:08:25;6.82;;;5.68;;
14722;SDS011;7452;55.594;12.986;2023-05-24T16:10:53;6.30;;;5.05;;
14722;SDS011;7452;55.594;12.986;2023-05-24T16:13:20;6.47;;;5.88;;
14722;SDS011;7452;55.594;12.986;2023-05-24T16:15:48;6.65;;;5.95;;
14722;SDS011;7452;55.594;12.986;2023-05-24T16:18:16;5.82;;;5.35;;
14722;SDS011;7452;55.594;12.986;2023-05-24T16:20:45;6.05;;;5.45;;
14722;SDS011;7452;55.594;12.986;2023-05-24T16:23:15;5.95;;;5.45;;
14722;SDS011;7452;55.594;12.986;2023-05-24T16:25:46;6.25;;;5.70;;
14722;SDS011;7452;55.594;12.986;2023-05-24T16:28:15;5.82;;;5.32;;
14722;SDS011;7452;55.594;12.986;2023-05-24T16:30:47;6.93;;;5.43;;
14722;SDS011;7452;55.594;12.986;2023-05-24T16:33:18;7.03;;;5.97;;
14722;SDS011;7452;55.594;12.986;2023-05-24T16:35:48;6.87;;;5.47;;
14722;SDS011;7452;55.594;12.986;2023-05-24T16:38:28;6.23;;;5.73;;
14722;SDS011;7452;55.594;12.986;2023-05-24T16:41:00;6.07;;;5.30;;
14722;SDS011;7452;55.594;12.986;2023-05-24T16:43:30;7.47;;;5.73;;
14722;SDS011;7452;55.594;12.986;2023-05-24T16:45:58;7.00;;;5.50;;
14722;SDS011;7452;55.594;12.986;2023-05-24T16:48:26;6.97;;;5.90;;
14722;SDS011;7452;55.594;12.986;2023-05-24T17:16:42;6.87;;;6.10;;
14722;SDS011;7452;55.594;12.986;2023-05-24T17:19:09;7.07;;;6.47;;
14722;SDS011;7452;55.594;12.986;2023-05-24T17:21:39;7.03;;;6.43;;
14722;SDS011;7452;55.594;12.986;2023-05-24T17:24:07;7.37;;;6.47;;
14722;SDS011;7452;55.594;12.986;2023-05-24T17:26:34;7.70;;;6.90;;
14722;SDS011;7452;55.594;12.986;2023-05-24T17:29:03;7.43;;;6.70;;
14722;SDS011;7452;55.594;12.986;2023-05-24T17:31:32;7.60;;;6.80;;
14722;SDS011;7452;55.594;12.986;2023-05-24T17:34:01;7.53;;;6.83;;
14722;SDS011;7452;55.594;12.986;2023-05-24T17:36:30;8.60;;;7.43;;
14722;SDS011;7452;55.594;12.986;2023-05-24T17:39:01;7.43;;;6.53;;
14722;SDS011;7452;55.594;12.986;2023-05-24T17:41:29;7.97;;;7.17;;
14722;SDS011;7452;55.594;12.986;2023-05-24T17:43:59;8.60;;;7.37;;
14722;SDS011;7452;55.594;12.986;2023-05-24T17:46:30;9.03;;;7.67;;
14722;SDS011;7452;55.594;12.986;2023-05-24T17:48:57;7.70;;;6.93;;
14722;SDS011;7452;55.594;12.986;2023-05-24T17:51:27;7.63;;;6.57;;
14722;SDS011;7452;55.594;12.986;2023-05-24T17:59:23;6.93;;;6.27;;
14722;SDS011;7452;55.594;12.986;2023-05-24T21:52:59;11.60;;;9.33;;
14722;SDS011;7452;55.594;12.986;2023-05-24T21:55:27;10.43;;;9.43;;
14722;SDS011;7452;55.594;12.986;2023-05-24T21:57:55;10.67;;;9.57;;
14722;SDS011;7452;55.594;12.986;2023-05-24T22:00:23;11.70;;;10.50;;
14722;SDS011;7452;55.594;12.986;2023-05-24T22:02:51;12.30;;;11.00;;
14722;SDS011;7452;55.594;12.986;2023-05-24T22:05:18;11.37;;;10.37;;
14722;SDS011;7452;55.594;12.986;2023-05-24T22:07:45;11.80;;;10.70;;
14722;SDS011;7452;55.594;12.986;2023-05-24T22:39:17;12.87;;;11.67;;
14722;SDS011;7452;55.594;12.986;2023-05-24T22:41:44;12.97;;;11.57;;
14722;SDS011;7452;55.594;12.986;2023-05-24T22:44:11;13.27;;;11.50;;
14722;SDS011;7452;55.594;12.986;2023-05-24T22:46:38;12.27;;;11.17;;
14722;SDS011;7452;55.594;12.986;2023-05-24T22:49:05;11.00;;;10.10;;
14722;SDS011;7452;55.594;12.986;2023-05-24T22:51:32;11.50;;;10.47;;
14722;SDS011;7452;55.594;12.986;2023-05-24T22:53:59;11.43;;;10.43;;
14722;SDS011;7452;55.594;12.986;2023-05-24T22:56:30;11.53;;;10.33;;
14722;SDS011;7452;55.594;12.986;2023-05-24T22:59:00;11.20;;;10.20;;
14722;SDS011;7452;55.594;12.986;2023-05-24T23:01:29;11.47;;;10.27;;
14722;SDS011;7452;55.594;12.986;2023-05-24T23:03:57;10.17;;;9.27;;
14722;SDS011;7452;55.594;12.986;2023-05-24T23:06:25;10.27;;;9.37;;
14722;SDS011;7452;55.594;12.986;2023-05-24T23:08:59;10.40;;;9.40;;
14722;SDS011;7452;55.594;12.986;2023-05-24T23:11:27;9.70;;;8.87;;
14722;SDS011;7452;55.594;12.986;2023-05-24T23:13:57;9.07;;;8.17;;
14722;SDS011;7452;55.594;12.986;2023-05-24T23:16:24;8.20;;;7.50;;
14722;SDS011;7452;55.594;12.986;2023-05-24T23:18:53;9.20;;;8.13;;
14722;SDS011;7452;55.594;12.986;2023-05-24T23:21:20;10.07;;;8.27;;
14722;SDS011;7452;55.594;12.986;2023-05-24T23:23:48;9.03;;;8.13;;
14722;SDS011;7452;55.594;12.986;2023-05-24T23:26:16;10.43;;;9.03;;
14722;SDS011;7452;55.594;12.986;2023-05-24T23:28:43;10.30;;;9.23;;
14722;SDS011;7452;55.594;12.986;2023-05-24T23:31:14;11.33;;;9.30;;
14722;SDS011;7452;55.594;12.986;2023-05-24T23:33:41;9.80;;;8.90;;
14722;SDS011;7452;55.594;12.986;2023-05-24T23:36:08;10.20;;;8.70;;
14722;SDS011;7452;55.594;12.986;2023-05-24T23:38:36;9.63;;;8.70;;
14722;SDS011;7452;55.594;12.986;2023-05-24T23:41:03;10.27;;;9.27;;
14722;SDS011;7452;55.594;12.986;2023-05-24T23:43:30;10.03;;;9.03;;
14722;SDS011;7452;55.594;12.986;2023-05-24T23:45:57;10.47;;;8.63;;
14722;SDS011;7452;55.594;12.986;2023-05-24T23:48:26;10.10;;;9.00;;
14722;SDS011;7452;55.594;12.986;2023-05-24T23:50:53;10.20;;;9.20;;